Terminal Aerodrome Forecast
Issued by NWS Twin Cities, MN

Home | Current Version | Previous Version | Text Only | Print | Product List | Glossary Off
Versions: 1 2 3 4 5 6 7 8 9 10 11 12 13 14 15 16 17 18 19

000
FTUS43 KMPX 250544
TAFEAU
TAF
KEAU 250544Z 2506/2606 04006KT 6SM -SN OVC030
     FM250900 03012KT P6SM FEW015 OVC025
     FM251700 03009KT P6SM SCT025=

USA.gov is the U.S. government's official web portal to all federal, state and local government web resources and services.